Time;durP1;ratioP1;P1;durP2;ratioP2;P2;SDS_P1;SDS_P2;PMS_P1;PMS_P2;Temp;Humidity;BMP_temperature;BMP_pressure;BME280_temperature;BME280_humidity;BME280_pressure;Samples;Min_cycle;Max_cycle;Signal;HPM_P1;HPM_P2
2024/01/14 00:00:06;;;;;;;;;1.00;1.00;;;;;14.87;44.21;100295.59;5116503;27;45355;-69
2024/01/14 00:02:33;;;;;;;;;1.00;1.00;;;;;15.07;44.29;100319.44;5116903;27;45327;-69
2024/01/14 00:04:59;;;;;;;;;2.00;1.00;;;;;14.97;44.34;100301.81;5113323;27;45442;-69
2024/01/14 00:07:25;;;;;;;;;1.00;1.00;;;;;15.01;44.57;100314.13;5115613;27;45498;-69
2024/01/14 00:09:51;;;;;;;;;2.00;1.00;;;;;15.02;44.52;100320.28;5116613;27;45548;-68
2024/01/14 00:12:16;;;;;;;;;1.00;1.00;;;;;15.04;44.40;100318.53;5117408;27;45473;-70
2024/01/14 00:14:42;;;;;;;;;1.33;0.67;;;;;15.04;44.42;100308.91;5117636;27;45428;-70
2024/01/14 00:17:08;;;;;;;;;1.00;1.00;;;;;15.00;44.67;100322.91;5117476;27;45532;-69
2024/01/14 00:19:33;;;;;;;;;2.00;1.00;;;;;14.98;44.83;100327.28;5121209;27;45389;-70
2024/01/14 00:21:59;;;;;;;;;1.00;1.00;;;;;14.99;44.87;100331.66;5121364;27;45446;-70
2024/01/14 00:24:25;;;;;;;;;1.67;1.00;;;;;14.99;44.66;100330.78;5121252;27;45766;-70
2024/01/14 00:26:50;;;;;;;;;1.67;1.00;;;;;14.73;44.95;100289.34;5121145;27;45496;-70
2024/01/14 00:29:16;;;;;;;;;1.67;0.67;;;;;14.96;45.01;100326.38;5121465;27;45350;-70
2024/01/14 00:31:42;;;;;;;;;1.00;1.00;;;;;14.95;45.11;100329.88;5121073;27;45458;-70
2024/01/14 00:34:07;;;;;;;;;1.00;1.00;;;;;14.99;45.01;100334.28;5120863;27;45981;-70
2024/01/14 00:36:39;;;;;;;;;1.00;0.00;;;;;14.99;45.29;100320.25;5121031;27;45469;-70
2024/01/14 00:39:05;;;;;;;;;0.67;0.67;;;;;15.01;45.14;100322.03;5121177;27;45485;-70
2024/01/14 00:41:30;;;;;;;;;1.00;1.00;;;;;15.04;45.15;100334.31;5121004;27;45494;-70
2024/01/14 00:43:56;;;;;;;;;1.00;1.00;;;;;15.06;45.21;100327.31;5121016;27;45480;-70
2024/01/14 00:46:21;;;;;;;;;0.75;0.75;;;;;15.01;45.41;100323.78;5120882;27;45452;-70
2024/01/14 00:48:47;;;;;;;;;2.00;1.67;;;;;15.00;45.42;100327.28;5121280;27;45355;-70
2024/01/14 00:51:12;;;;;;;;;1.33;1.00;;;;;14.98;45.59;100323.75;5121033;27;45436;-70
2024/01/14 00:53:38;;;;;;;;;2.33;1.33;;;;;14.99;45.58;100321.13;5120631;27;45308;-71
2024/01/14 00:56:04;;;;;;;;;2.00;1.00;;;;;15.03;45.49;100309.75;5120662;27;45239;-71
2024/01/14 00:58:29;;;;;;;;;2.00;1.00;;;;;15.08;45.55;100315.06;5120766;27;45363;-71
2024/01/14 01:00:55;;;;;;;;;1.00;1.00;;;;;15.08;45.53;100312.44;5120934;27;45463;-69
2024/01/14 01:03:21;;;;;;;;;2.00;2.00;;;;;15.02;45.62;100291.34;5120875;27;45582;-69
2024/01/14 01:05:46;;;;;;;;;2.00;1.00;;;;;15.13;45.29;100309.84;5120541;27;45576;-69
2024/01/14 01:08:12;;;;;;;;;1.33;1.33;;;;;15.10;45.00;100292.31;5120626;27;45412;-69
2024/01/14 01:10:37;;;;;;;;;1.00;1.00;;;;;15.17;45.09;100304.63;5120698;27;45329;-69
2024/01/14 01:13:03;;;;;;;;;1.00;1.00;;;;;15.20;44.89;100296.75;5120236;27;45457;-69
2024/01/14 01:15:29;;;;;;;;;1.33;1.33;;;;;15.18;44.74;100295.88;5120234;27;45477;-69
2024/01/14 01:17:54;;;;;;;;;0.33;0.33;;;;;15.14;44.36;100283.56;5120567;27;45515;-69
2024/01/14 01:20:20;;;;;;;;;1.00;1.00;;;;;15.25;44.55;100302.91;5120977;27;45530;-69
2024/01/14 01:22:46;;;;;;;;;2.00;1.00;;;;;14.90;44.28;100243.06;5120159;27;45725;-69
2024/01/14 01:25:11;;;;;;;;;1.00;1.00;;;;;15.11;44.27;100273.88;5120360;27;45352;-69
2024/01/14 01:27:37;;;;;;;;;1.00;1.00;;;;;15.22;44.24;100292.38;5119599;27;45250;-69
2024/01/14 01:30:03;;;;;;;;;0.67;0.00;;;;;15.29;44.03;100309.97;5120099;27;45340;-69
2024/01/14 01:32:29;;;;;;;;;1.33;1.33;;;;;15.31;44.15;100312.59;5120246;27;45382;-69
2024/01/14 01:34:55;;;;;;;;;0.33;0.33;;;;;15.07;44.18;100273.84;5120007;27;45233;-69
2024/01/14 01:37:20;;;;;;;;;1.00;1.00;;;;;15.30;44.13;100305.59;5120253;27;45478;-69
2024/01/14 01:39:46;;;;;;;;;0.00;0.00;;;;;15.36;44.16;100317.88;5120162;27;45458;-69
2024/01/14 01:42:11;;;;;;;;;1.00;1.00;;;;;15.34;44.29;100311.75;5119940;27;45998;-69
2024/01/14 01:44:37;;;;;;;;;2.00;1.33;;;;;15.33;44.51;100313.50;5119974;27;45293;-69
2024/01/14 01:47:03;;;;;;;;;1.00;1.00;;;;;15.21;44.07;100287.97;5120035;27;45400;-69
2024/01/14 01:49:29;;;;;;;;;1.00;1.00;;;;;15.35;44.50;100308.25;5120110;27;45274;-69
2024/01/14 01:51:57;;;;;;;;;1.00;1.00;;;;;15.37;44.38;100314.41;5119668;27;45451;-69
2024/01/14 01:54:26;;;;;;;;;2.00;2.00;;;;;15.39;44.61;100320.56;5119712;27;45463;-69
2024/01/14 01:56:53;;;;;;;;;1.00;1.00;;;;;15.31;44.40;100309.97;5120162;27;45343;-69
2024/01/14 01:59:19;;;;;;;;;1.33;1.00;;;;;15.21;44.67;100300.25;5119990;27;45394;-69
2024/01/14 02:01:47;;;;;;;;;1.00;1.00;;;;;15.36;44.73;100317.88;5119333;27;46005;-68
2024/01/14 02:04:14;;;;;;;;;2.00;1.00;;;;;15.38;44.57;100317.06;5119264;27;45340;-69
2024/01/14 02:06:41;;;;;;;;;1.00;1.00;;;;;15.42;44.36;100324.09;5119353;27;45470;-69
2024/01/14 02:09:10;;;;;;;;;1.67;1.00;;;;;15.44;44.45;100310.97;5119488;27;45504;-69
2024/01/14 02:11:36;;;;;;;;;1.00;1.00;;;;;15.44;44.10;100314.47;5119364;27;45572;-69
2024/01/14 02:14:03;;;;;;;;;1.00;1.00;;;;;15.48;44.19;100310.09;5119205;27;45253;-69
2024/01/14 02:16:28;;;;;;;;;1.67;1.00;;;;;15.50;44.17;100308.34;5119344;27;45324;-69
2024/01/14 02:18:54;;;;;;;;;1.33;0.67;;;;;15.50;44.11;100313.63;5119772;27;45453;-69
2024/01/14 02:21:23;;;;;;;;;1.00;1.00;;;;;15.49;44.32;100317.09;5119209;27;46132;-69
2024/01/14 02:24:21;;;;;;;;;0.00;0.00;;;;;15.49;44.26;100315.34;5119410;27;45514;-68
2024/01/14 02:26:47;;;;;;;;;1.00;0.33;;;;;15.51;44.36;100299.56;5108169;27;45437;-69
2024/01/14 02:29:13;;;;;;;;;1.00;1.00;;;;;15.34;44.32;100277.53;5119452;27;45389;-69
2024/01/14 02:31:39;;;;;;;;;0.67;0.00;;;;;15.54;44.36;100302.25;5119074;27;45461;-69
2024/01/14 02:34:06;;;;;;;;;1.00;1.00;;;;;15.54;44.33;100286.44;5118869;27;45295;-69
2024/01/14 02:36:33;;;;;;;;;1.00;1.00;;;;;15.42;44.10;100265.28;5119352;27;45296;-69
2024/01/14 02:38:58;;;;;;;;;2.67;1.33;;;;;15.56;44.44;100287.31;5118905;27;45372;-69
2024/01/14 02:41:24;;;;;;;;;0.00;0.00;;;;;15.57;44.48;100283.81;5119282;27;45355;-69
2024/01/14 02:43:50;;;;;;;;;0.67;0.67;;;;;15.58;44.73;100293.47;5119057;27;45520;-69
2024/01/14 02:46:16;;;;;;;;;1.00;1.00;;;;;15.42;44.51;100270.53;5119040;27;45463;-69
2024/01/14 02:48:41;;;;;;;;;1.00;1.00;;;;;15.61;44.57;100301.38;5119065;27;45521;-69
2024/01/14 02:51:07;;;;;;;;;0.67;0.67;;;;;15.59;44.71;100292.59;5118570;27;45415;-69
2024/01/14 02:53:32;;;;;;;;;0.67;0.67;;;;;15.65;44.61;100302.28;5118839;27;45458;-69
2024/01/14 02:55:58;;;;;;;;;1.00;1.00;;;;;15.63;44.73;100299.63;5119087;27;45374;-69
2024/01/14 02:58:24;;;;;;;;;0.33;0.33;;;;;15.42;44.82;100268.81;5119228;27;45408;-69
2024/01/14 03:00:50;;;;;;;;;1.33;1.33;;;;;15.64;44.90;100305.81;5118564;27;46006;-69
2024/01/14 03:03:16;;;;;;;;;2.00;2.00;;;;;15.62;44.83;100302.28;5118612;27;45498;-69
2024/01/14 03:05:42;;;;;;;;;1.00;1.00;;;;;15.49;45.12;100282.88;5118652;27;45349;-69
2024/01/14 03:08:08;;;;;;;;;0.00;0.00;;;;;15.60;45.07;100302.28;5118937;27;45456;-69
2024/01/14 03:10:33;;;;;;;;;1.00;1.00;;;;;15.50;45.18;100275.00;5118707;27;45323;-69
2024/01/14 03:12:59;;;;;;;;;1.00;1.00;;;;;15.63;44.78;100299.63;5118649;27;45313;-69
2024/01/14 03:15:24;;;;;;;;;1.00;1.00;;;;;15.63;44.78;100304.03;5118879;27;45464;-69
2024/01/14 03:17:50;;;;;;;;;1.00;1.00;;;;;15.64;44.89;100306.69;5118709;27;45522;-69
2024/01/14 03:20:16;;;;;;;;;1.00;1.00;;;;;15.58;44.94;100306.66;5118394;27;45317;-69
2024/01/14 03:22:42;;;;;;;;;2.00;1.00;;;;;15.62;45.09;100308.41;5118272;27;46161;-69
2024/01/14 03:25:08;;;;;;;;;2.00;1.00;;;;;15.55;45.07;100298.72;5118254;27;45320;-69
2024/01/14 03:27:34;;;;;;;;;1.00;1.00;;;;;15.57;45.07;100304.88;5118405;27;45439;-69
2024/01/14 03:29:59;;;;;;;;;1.33;1.00;;;;;15.09;45.03;100217.72;5118433;27;45607;-69
2024/01/14 03:32:25;;;;;;;;;1.00;1.00;;;;;15.56;44.80;100308.38;5118138;27;45432;-69
2024/01/14 03:34:51;;;;;;;;;1.00;1.00;;;;;15.55;44.94;100319.78;5118339;27;45221;-69
2024/01/14 03:37:16;;;;;;;;;1.00;1.00;;;;;15.55;44.75;100311.00;5118542;27;45320;-69
2024/01/14 03:39:42;;;;;;;;;1.00;1.00;;;;;15.54;44.92;100315.41;5118260;27;45970;-69
2024/01/14 03:42:07;;;;;;;;;1.00;1.00;;;;;15.21;44.94;100255.53;5118062;27;45376;-69
2024/01/14 03:44:33;;;;;;;;;1.00;1.00;;;;;15.52;44.95;100312.75;5118154;27;45477;-69
2024/01/14 03:46:58;;;;;;;;;1.33;0.67;;;;;15.49;45.25;100306.56;5118577;27;45652;-69
2024/01/14 03:49:24;;;;;;;;;1.00;0.33;;;;;15.51;44.87;100305.72;5117914;27;45967;-69
2024/01/14 03:51:50;;;;;;;;;1.00;1.00;;;;;15.40;45.00;100273.19;5119374;27;45299;-70
2024/01/14 03:54:15;;;;;;;;;1.00;1.00;;;;;15.51;44.90;100281.16;5121809;27;45693;-69
2024/01/14 03:56:41;;;;;;;;;1.00;1.00;;;;;15.52;44.75;100275.03;5121983;27;45316;-69
2024/01/14 03:59:06;;;;;;;;;1.33;1.00;;;;;15.38;44.77;100250.34;5121454;27;45342;-69
2024/01/14 04:01:32;;;;;;;;;1.00;1.00;;;;;15.50;44.84;100287.28;5121758;27;45327;-69
2024/01/14 04:03:57;;;;;;;;;2.00;1.00;;;;;15.49;45.13;100289.03;5121996;27;46071;-69
2024/01/14 04:06:23;;;;;;;;;3.00;3.00;;;;;15.48;44.99;100300.44;5121673;27;45245;-69
2024/01/14 04:08:49;;;;;;;;;6.00;5.25;;;;;15.48;45.08;100315.38;5119920;27;46302;-69
2024/01/14 04:11:15;;;;;;;;;2.00;2.00;;;;;15.46;45.37;100312.72;5121387;27;45499;-69
2024/01/14 04:13:40;;;;;;;;;2.33;2.33;;;;;15.47;45.43;100316.22;5121592;27;45179;-69
2024/01/14 04:16:09;;;;;;;;;1.00;1.00;;;;;15.47;45.69;100313.59;5121406;27;45303;-69
2024/01/14 04:18:35;;;;;;;;;2.00;2.00;;;;;15.47;46.44;100316.22;5121303;27;45506;-69
2024/01/14 04:21:01;;;;;;;;;3.00;3.00;;;;;15.46;47.28;100312.72;5121449;27;45459;-69
2024/01/14 04:23:26;;;;;;;;;15.75;12.50;;;;;15.36;47.80;100299.47;5121128;27;45422;-69
2024/01/14 04:25:52;;;;;;;;;21.00;15.00;;;;;15.37;47.98;100306.50;5121398;27;45497;-69
2024/01/14 04:28:18;;;;;;;;;8.00;7.25;;;;;15.37;48.28;100314.41;5120951;27;45954;-69
2024/01/14 04:30:44;;;;;;;;;6.00;4.25;;;;;15.36;48.70;100310.00;5121162;27;45329;-69
2024/01/14 04:33:09;;;;;;;;;2.00;2.00;;;;;15.32;49.25;100310.00;5121035;27;45218;-69
2024/01/14 04:35:35;;;;;;;;;1.00;1.00;;;;;15.29;49.17;100320.47;5121258;27;45388;-69
2024/01/14 04:38:01;;;;;;;;;2.00;2.00;;;;;15.34;48.72;100312.63;5121272;27;46114;-69
2024/01/14 04:40:26;;;;;;;;;1.00;1.00;;;;;15.08;49.16;100276.50;5121013;27;45318;-69
2024/01/14 04:42:53;;;;;;;;;1.00;1.00;;;;;15.19;48.66;100300.25;5121009;27;45465;-69
2024/01/14 04:45:18;;;;;;;;;2.00;2.00;;;;;15.02;49.04;100271.19;5121161;27;45521;-69
2024/01/14 04:47:44;;;;;;;;;3.00;1.00;;;;;15.15;49.01;100293.19;5120590;27;45500;-69
2024/01/14 04:50:10;;;;;;;;;1.00;1.00;;;;;15.09;49.18;100283.50;5120549;27;45500;-69
2024/01/14 04:52:36;;;;;;;;;1.00;1.00;;;;;15.07;49.12;100277.34;5120973;27;45294;-69
2024/01/14 04:55:01;;;;;;;;;1.67;1.00;;;;;14.86;49.29;100253.50;5121251;27;45299;-69
2024/01/14 04:57:27;;;;;;;;;1.00;1.00;;;;;15.03;49.36;100279.97;5120571;27;45965;-69
2024/01/14 04:59:52;;;;;;;;;1.00;1.00;;;;;14.98;49.02;100290.47;5120495;27;45263;-69
2024/01/14 05:02:18;;;;;;;;;1.33;1.00;;;;;15.04;50.70;100297.50;5120655;27;45462;-69
2024/01/14 05:04:44;;;;;;;;;1.00;1.00;;;;;14.91;51.09;100302.66;5120905;27;45316;-69
2024/01/14 05:07:09;;;;;;;;;1.33;1.33;;;;;14.88;51.72;100310.53;5120395;27;45966;-69
2024/01/14 05:09:35;;;;;;;;;1.00;1.00;;;;;14.85;51.85;100312.25;5120762;27;45487;-69
2024/01/14 05:12:01;;;;;;;;;1.00;1.00;;;;;14.84;51.52;100314.00;5120454;27;45399;-69
2024/01/14 05:14:26;;;;;;;;;2.00;1.00;;;;;14.84;51.59;100306.13;5120866;27;45497;-69
2024/01/14 05:16:52;;;;;;;;;2.00;1.00;;;;;14.84;51.46;100305.22;5120161;27;45336;-69
2024/01/14 05:19:17;;;;;;;;;2.00;2.00;;;;;14.83;50.94;100298.22;5120331;27;45382;-69
2024/01/14 05:21:43;;;;;;;;;1.67;1.67;;;;;14.84;50.84;100306.13;5119117;27;45439;-69
2024/01/14 05:24:09;;;;;;;;;3.00;3.00;;;;;14.84;50.56;100310.47;5120485;27;45503;-69
2024/01/14 05:26:40;;;;;;;;;2.00;1.50;;;;;14.70;50.39;100284.06;5120457;27;45334;-69
2024/01/14 05:29:05;;;;;;;;;2.00;2.00;;;;;14.83;50.04;100304.34;5120407;27;45489;-69
2024/01/14 05:31:31;;;;;;;;;2.00;1.00;;;;;14.84;50.06;100305.22;5120256;27;45325;-69
2024/01/14 05:33:56;;;;;;;;;2.00;2.00;;;;;14.84;49.93;100306.13;5120341;27;45459;-69
2024/01/14 05:36:22;;;;;;;;;2.00;2.00;;;;;14.85;49.63;100309.63;5120014;27;45995;-69
2024/01/14 05:38:48;;;;;;;;;2.50;2.00;;;;;14.85;49.62;100307.00;5119957;27;45449;-69
2024/01/14 05:41:13;;;;;;;;;2.33;2.33;;;;;14.86;49.68;100303.47;5120416;27;45482;-69
2024/01/14 05:43:39;;;;;;;;;3.00;1.33;;;;;14.85;49.72;100302.59;5120240;27;45340;-69
2024/01/14 05:46:04;;;;;;;;;1.33;1.00;;;;;14.58;49.54;100250.66;5120216;27;46157;-69
2024/01/14 05:48:30;;;;;;;;;1.75;1.75;;;;;14.85;49.48;100291.22;5119889;27;45383;-69
2024/01/14 05:50:56;;;;;;;;;1.00;1.00;;;;;14.82;49.66;100288.53;5119687;27;45441;-69
2024/01/14 05:53:21;;;;;;;;;2.00;1.00;;;;;14.85;49.86;100294.72;5120127;27;45423;-69
2024/01/14 05:55:47;;;;;;;;;2.00;2.00;;;;;14.84;49.57;100292.97;5119565;27;45413;-69
2024/01/14 05:58:12;;;;;;;;;1.67;1.33;;;;;14.84;49.54;100287.72;5119534;27;45478;-69
2024/01/14 06:00:38;;;;;;;;;2.00;1.00;;;;;14.85;49.53;100296.47;5120063;27;45495;-69
2024/01/14 06:03:04;;;;;;;;;4.00;2.67;;;;;14.86;49.29;100301.75;5119939;27;45325;-69
2024/01/14 06:05:29;;;;;;;;;2.00;2.00;;;;;14.58;49.55;100261.16;5119627;27;45332;-69
2024/01/14 06:07:55;;;;;;;;;1.00;1.00;;;;;14.87;49.67;100300.88;5118095;27;45452;-69
2024/01/14 06:10:20;;;;;;;;;2.00;2.00;;;;;14.86;49.94;100293.88;5119643;27;45273;-69
2024/01/14 06:12:46;;;;;;;;;3.00;2.67;;;;;14.81;50.28;100287.66;5119665;27;45324;-69
2024/01/14 06:15:12;;;;;;;;;2.67;2.00;;;;;14.84;50.24;100263.13;5118623;27;45506;-69
2024/01/14 06:17:37;;;;;;;;;2.00;2.00;;;;;14.79;50.38;100254.34;5119812;27;45256;-69
2024/01/14 06:20:03;;;;;;;;;3.00;2.67;;;;;14.82;50.11;100254.34;5119554;27;45353;-69
2024/01/14 06:22:29;;;;;;;;;1.67;1.00;;;;;14.63;50.29;100227.06;5119731;27;45548;-69
2024/01/14 06:24:55;;;;;;;;;1.67;1.00;;;;;14.76;50.69;100246.44;5119209;27;45996;-69
2024/01/14 06:27:20;;;;;;;;;2.00;1.00;;;;;14.72;50.75;100250.78;5118986;27;45466;-69
2024/01/14 06:29:46;;;;;;;;;2.67;2.67;;;;;14.71;50.90;100272.69;5119473;27;45359;-69
2024/01/14 06:32:11;;;;;;;;;3.00;3.00;;;;;14.68;51.06;100272.66;5119430;27;45317;-69
2024/01/14 06:34:37;;;;;;;;;4.33;3.00;;;;;14.67;51.15;100278.78;5119284;27;45873;-69
2024/01/14 06:37:03;;;;;;;;;3.00;2.00;;;;;14.64;51.21;100281.38;5119010;27;45332;-69
2024/01/14 06:39:29;;;;;;;;;3.00;3.00;;;;;14.62;51.59;100278.75;5119246;27;45479;-69
2024/01/14 06:41:54;;;;;;;;;3.67;1.67;;;;;14.60;51.62;100272.56;5119143;27;45459;-69
2024/01/14 06:44:20;;;;;;;;;1.00;1.00;;;;;14.58;51.47;100271.69;5118896;27;45451;-69
2024/01/14 06:46:45;;;;;;;;;2.00;1.67;;;;;14.55;51.40;100265.50;5118815;27;45498;-69
2024/01/14 06:49:11;;;;;;;;;2.00;2.00;;;;;14.51;51.62;100265.47;5117719;27;45450;-68
2024/01/14 06:51:44;;;;;;;;;2.00;1.00;;;;;14.50;51.48;100268.06;5118175;27;45378;-68
2024/01/14 06:54:10;;;;;;;;;1.67;1.67;;;;;14.48;51.29;100272.44;5118008;27;46369;-69
2024/01/14 06:56:46;;;;;;;;;1.00;1.00;;;;;14.39;51.13;100264.47;5117779;27;45538;-69
2024/01/14 06:59:20;;;;;;;;;3.00;1.00;;;;;14.47;50.86;100274.19;5115927;27;45391;-69
2024/01/14 07:01:46;;;;;;;;;2.00;1.00;;;;;14.47;50.79;100276.81;5118079;27;45436;-69
2024/01/14 07:04:12;;;;;;;;;2.00;2.00;;;;;14.47;51.01;100275.94;5118080;27;45495;-69
2024/01/14 07:06:38;;;;;;;;;2.00;1.33;;;;;14.40;50.77;100266.22;5118084;27;45419;-69
2024/01/14 07:09:05;;;;;;;;;3.00;2.50;;;;;14.44;50.92;100270.63;5117661;27;45550;-69
2024/01/14 07:11:31;;;;;;;;;3.50;3.25;;;;;14.49;50.89;100274.22;5115306;27;45315;-68
2024/01/14 07:13:58;;;;;;;;;6.00;5.00;;;;;14.43;51.09;100268.91;5117158;27;45519;-69
2024/01/14 07:16:24;;;;;;;;;6.00;5.00;;;;;14.23;51.16;100232.78;5117184;27;45379;-69
2024/01/14 07:18:49;;;;;;;;;16.25;15.75;;;;;14.41;51.13;100263.63;5117520;27;45320;-69
2024/01/14 07:21:18;;;;;;;;;6.75;6.00;;;;;14.25;51.13;100230.19;5117785;27;45336;-69
2024/01/14 07:23:44;;;;;;;;;5.50;4.75;;;;;14.48;51.79;100275.97;5117686;27;45487;-68
2024/01/14 07:26:19;;;;;;;;;4.50;4.00;;;;;14.47;51.67;100278.56;5116211;27;45500;-69
2024/01/14 07:28:45;;;;;;;;;15.50;14.00;;;;;14.28;51.89;100240.69;5117599;27;45654;-69
2024/01/14 07:31:12;;;;;;;;;7.75;6.50;;;;;14.43;51.92;100267.13;5117675;27;45547;-69
2024/01/14 07:33:38;;;;;;;;;5.25;5.00;;;;;14.44;51.71;100278.53;5117250;27;46069;-68
2024/01/14 07:36:05;;;;;;;;;3.25;3.00;;;;;14.41;51.49;100266.25;5117200;27;45809;-69
2024/01/14 07:38:30;;;;;;;;;3.25;3.00;;;;;14.48;51.29;100281.22;5117042;27;45420;-69
2024/01/14 07:40:56;;;;;;;;;2.67;2.00;;;;;14.49;50.97;100277.72;5117430;27;45523;-69
2024/01/14 07:43:21;;;;;;;;;2.75;1.25;;;;;14.53;51.02;100281.25;5117426;27;45486;-69
2024/01/14 07:45:49;;;;;;;;;3.75;3.00;;;;;14.59;50.64;100280.47;5117259;27;45379;-69
2024/01/14 07:48:15;;;;;;;;;6.00;5.00;;;;;14.62;50.60;100276.13;5117682;27;45510;-68
2024/01/14 07:50:40;;;;;;;;;3.75;3.00;;;;;14.64;50.13;100271.75;5117491;27;45547;-69
2024/01/14 07:53:07;;;;;;;;;1.33;1.33;;;;;14.69;50.18;100270.03;5116944;27;45483;-69
2024/01/14 07:55:33;;;;;;;;;3.00;2.67;;;;;14.68;50.24;100270.91;5114391;27;45355;-69
2024/01/14 07:57:58;;;;;;;;;6.00;4.00;;;;;14.72;50.03;100274.44;5116891;27;45300;-69
2024/01/14 08:00:24;;;;;;;;;3.75;3.25;;;;;14.76;50.04;100259.56;5115173;27;45340;-69
2024/01/14 08:02:50;;;;;;;;;3.00;2.00;;;;;14.79;50.30;100252.59;5115152;27;46366;-69
2024/01/14 08:05:15;;;;;;;;;2.75;2.00;;;;;14.82;49.95;100236.84;5116941;27;45382;-69
2024/01/14 08:07:41;;;;;;;;;2.00;2.00;;;;;14.85;50.21;100236.84;5115395;27;45402;-69
2024/01/14 08:10:07;;;;;;;;;2.00;2.00;;;;;14.87;49.85;100232.50;5115704;27;45304;-69
2024/01/14 08:12:33;;;;;;;;;3.00;3.00;;;;;14.91;50.07;100230.78;5113862;27;45532;-69
2024/01/14 08:14:58;;;;;;;;;2.33;2.33;;;;;14.91;50.08;100217.63;5116450;27;45570;-69
2024/01/14 08:17:25;;;;;;;;;8.75;7.75;;;;;14.96;49.92;100210.66;5114933;27;45535;-69
2024/01/14 08:19:51;;;;;;;;;4.00;3.00;;;;;14.99;49.82;100217.69;5116563;27;45521;-69
2024/01/14 08:22:20;;;;;;;;;8.25;6.00;;;;;14.88;50.12;100188.66;5116509;27;45976;-69
2024/01/14 08:24:45;;;;;;;;;5.50;5.50;;;;;15.07;49.96;100210.72;5116916;27;45470;-69
2024/01/14 08:27:11;;;;;;;;;5.75;5.50;;;;;15.07;50.00;100206.31;5116443;27;45494;-69
2024/01/14 08:29:37;;;;;;;;;14.50;13.00;;;;;15.14;50.10;100212.53;5115507;27;45519;-69
2024/01/14 08:32:02;;;;;;;;;3.25;3.00;;;;;15.13;50.04;100207.25;5116174;27;46003;-69
2024/01/14 08:34:28;;;;;;;;;5.75;5.50;;;;;15.21;50.12;100221.31;5116222;27;45398;-69
2024/01/14 08:36:53;;;;;;;;;9.25;8.50;;;;;15.25;49.95;100231.88;5116699;27;45285;-69
2024/01/14 08:39:20;;;;;;;;;7.00;6.00;;;;;15.28;50.14;100233.66;5119928;27;45459;-68
2024/01/14 08:41:46;;;;;;;;;3.75;3.00;;;;;15.28;50.08;100233.66;5120203;27;46134;-70
2024/01/14 08:44:14;;;;;;;;;3.00;3.00;;;;;15.35;49.63;100231.94;5120077;27;45432;-69
2024/01/14 08:46:40;;;;;;;;;5.00;4.00;;;;;15.35;49.80;100230.16;5120660;27;45496;-69
2024/01/14 08:49:07;;;;;;;;;4.50;4.00;;;;;15.38;49.66;100227.56;5121076;27;45464;-70
2024/01/14 08:51:32;;;;;;;;;9.75;7.00;;;;;15.18;49.52;100198.50;5118952;27;46607;-71
2024/01/14 08:54:00;;;;;;;;;8.75;8.75;;;;;15.31;49.73;100220.50;5119387;27;45472;-70
2024/01/14 08:56:29;;;;;;;;;8.50;8.00;;;;;15.27;49.56;100209.06;5116203;27;45408;-69
2024/01/14 08:58:56;;;;;;;;;11.00;10.00;;;;;15.46;49.75;100231.13;5120088;27;45466;-69
2024/01/14 09:01:23;;;;;;;;;6.00;4.50;;;;;15.48;49.64;100225.88;5119466;27;45450;-69
2024/01/14 09:03:48;;;;;;;;;9.75;9.25;;;;;15.51;49.39;100231.13;5118392;27;45342;-70
2024/01/14 09:06:14;;;;;;;;;9.00;7.75;;;;;15.45;49.29;100208.28;5119812;27;45333;-70
2024/01/14 09:08:40;;;;;;;;;4.00;4.00;;;;;15.62;49.31;100232.06;5119773;27;45426;-70
2024/01/14 09:11:07;;;;;;;;;2.00;2.00;;;;;15.68;49.30;100234.72;5118690;27;45434;-68
2024/01/14 09:13:32;;;;;;;;;3.00;3.00;;;;;15.56;49.22;100210.97;5119388;27;45665;-70
2024/01/14 09:15:58;;;;;;;;;2.33;2.33;;;;;15.58;49.30;100189.91;5119648;27;45681;-69
2024/01/14 09:18:23;;;;;;;;;3.00;3.00;;;;;15.85;49.03;100229.53;5119661;27;45437;-69
2024/01/14 09:20:49;;;;;;;;;4.00;3.00;;;;;15.97;49.14;100231.31;5119603;27;45971;-69
2024/01/14 09:23:15;;;;;;;;;4.00;4.00;;;;;16.12;48.80;100225.22;5119682;27;45237;-69
2024/01/14 09:25:41;;;;;;;;;5.00;5.00;;;;;16.35;48.59;100225.25;5119397;27;45467;-69
2024/01/14 09:28:07;;;;;;;;;3.00;3.00;;;;;16.67;48.46;100219.13;5119464;27;45485;-70
2024/01/14 09:30:32;;;;;;;;;5.00;4.00;;;;;16.96;47.63;100210.34;5119075;27;46156;-71
2024/01/14 09:32:58;;;;;;;;;3.33;3.33;;;;;17.62;46.54;100173.16;5119301;27;45415;-70
2024/01/14 09:35:24;;;;;;;;;4.67;3.00;;;;;18.99;44.56;100194.25;5119322;27;45451;-70
2024/01/14 09:37:50;;;;;;;;;2.33;2.33;;;;;20.17;42.69;100201.63;5119886;27;45608;-69
2024/01/14 09:40:19;;;;;;;;;12.00;11.00;;;;;21.06;40.95;100192.22;5116491;27;46169;-67
2024/01/14 09:42:45;;;;;;;;;6.33;5.67;;;;;21.67;40.19;100187.50;5119130;27;45486;-67
2024/01/14 09:45:11;;;;;;;;;7.00;7.00;;;;;22.12;39.15;100182.03;5119098;27;45516;-67
2024/01/14 09:47:39;;;;;;;;;6.33;6.33;;;;;22.53;37.77;100171.34;5119233;27;45344;-67
2024/01/14 09:50:07;;;;;;;;;7.67;6.00;;;;;22.92;38.17;100174.75;5118185;27;46225;-68
2024/01/14 09:52:34;;;;;;;;;6.67;5.00;;;;;22.73;37.75;100176.16;5119484;27;45524;-67
2024/01/14 09:55:00;;;;;;;;;5.00;5.00;;;;;22.23;38.11;100187.97;5119654;27;45333;-67
2024/01/14 09:57:29;;;;;;;;;9.00;8.00;;;;;21.65;38.21;100158.28;5119882;27;45558;-67
2024/01/14 09:59:55;;;;;;;;;5.00;4.00;;;;;21.62;39.58;100192.03;5118480;27;46060;-66
2024/01/14 10:02:22;;;;;;;;;5.33;4.00;;;;;21.29;39.20;100161.66;5119055;27;46487;-67
2024/01/14 10:04:48;;;;;;;;;5.00;4.00;;;;;21.38;39.77;100202.22;5118598;27;45704;-68
2024/01/14 10:07:15;;;;;;;;;2.67;2.00;;;;;21.30;39.51;100200.63;5118678;27;45501;-67
2024/01/14 10:09:42;;;;;;;;;3.00;3.00;;;;;21.38;39.73;100204.00;5118688;27;45402;-68
2024/01/14 10:12:09;;;;;;;;;2.00;2.00;;;;;21.38;39.54;100177.44;5118851;27;45221;-68
2024/01/14 10:14:35;;;;;;;;;4.67;4.67;;;;;21.64;39.28;100193.72;5119372;27;45252;-68
2024/01/14 10:17:01;;;;;;;;;4.67;3.33;;;;;21.65;39.69;100189.31;5119601;27;45350;-68
2024/01/14 10:19:26;;;;;;;;;4.00;3.00;;;;;21.57;39.05;100172.66;5119051;27;46121;-68
2024/01/14 10:21:54;;;;;;;;;9.00;7.00;;;;;21.50;39.05;100171.03;5119586;27;45187;-68
2024/01/14 10:24:21;;;;;;;;;3.33;3.00;;;;;21.34;39.70;100151.81;5119825;27;45539;-68
2024/01/14 10:26:54;;;;;;;;;12.67;12.33;;;;;21.39;40.15;100157.94;5119384;27;45250;-68
2024/01/14 10:29:22;;;;;;;;;7.00;7.00;;;;;21.28;39.46;100149.31;5119016;27;45410;-68
2024/01/14 10:31:48;;;;;;;;;9.67;8.67;;;;;21.02;40.40;100142.72;5119572;27;45305;-68
2024/01/14 10:34:18;;;;;;;;;7.33;6.33;;;;;20.96;40.34;100153.47;5118987;27;45398;-68
2024/01/14 10:36:45;;;;;;;;;6.00;5.00;;;;;20.93;40.69;100159.72;5119300;27;45435;-68
2024/01/14 10:39:12;;;;;;;;;19.67;16.67;;;;;20.94;40.75;100164.09;5118522;27;45448;-67
2024/01/14 10:41:38;;;;;;;;;30.50;28.50;;;;;20.82;41.26;100153.72;5118701;27;45460;-67
2024/01/14 10:44:04;;;;;;;;;7.00;6.33;;;;;20.90;40.99;100166.84;5118931;27;45248;-68
2024/01/14 10:46:32;;;;;;;;;7.00;6.33;;;;;20.85;40.96;100172.25;5118907;27;45232;-68
2024/01/14 10:49:08;;;;;;;;;11.00;9.00;;;;;20.80;41.42;100166.16;5118441;27;45562;-68
2024/01/14 10:51:42;;;;;;;;;8.67;7.33;;;;;20.78;41.30;100166.16;5118564;27;45454;-68
2024/01/14 10:54:16;;;;;;;;;3.67;3.67;;;;;20.82;41.49;100154.59;5118733;27;45225;-68
2024/01/14 10:56:48;;;;;;;;;3.00;2.00;;;;;20.83;41.32;100156.34;5118520;27;45589;-68
2024/01/14 10:59:15;;;;;;;;;2.33;2.00;;;;;20.85;40.99;100164.31;5118374;27;46150;-68
2024/01/14 11:01:49;;;;;;;;;1.67;1.00;;;;;20.88;40.80;100166.00;5117990;27;45448;-68
2024/01/14 11:04:18;;;;;;;;;3.00;3.00;;;;;20.92;40.88;100165.06;5118667;27;45394;-68
2024/01/14 11:06:44;;;;;;;;;3.00;2.00;;;;;20.92;41.33;100152.63;5117468;27;45281;-67
2024/01/14 11:09:10;;;;;;;;;3.00;3.00;;;;;20.79;41.17;100120.16;5118009;27;45510;-68
2024/01/14 11:11:55;;;;;;;;;4.00;3.00;;;;;20.84;41.18;100123.56;5118094;27;45610;-69
2024/01/14 11:14:45;;;;;;;;;6.67;5.00;;;;;20.96;41.01;100143.72;5118796;27;45898;-68
2024/01/14 11:17:38;;;;;;;;;10.67;8.33;;;;;20.96;41.45;100132.22;5118217;27;45448;-67
2024/01/14 11:20:06;;;;;;;;;2.00;2.00;;;;;20.95;41.26;100126.03;5113944;27;45456;-68